aviador You're here:

KAKR Decoded Metar

AKRON in OH, USA
Report Time2017-11-25 02:54:00
UTC Time2017-11-25 03:57:36
Flight Rules vfr VFR
Wind190° at 12 kt
W.Decomp.*RWY 19: 11.9 kt HW 1.5 kt RCW
RWY 25: 7.2 kt HW 9.6 kt LCW
W.Rank190° ranks 5
Current wind is above 190° avg. (7.6)
Visibility9999 m
Phenomena:N/A
Clouds:N/A
Expected CloudBase > 5,200 ft AGL from Temp-Dew spread
CeilingNone
Temp09°C (ISA -4)
Dew Point-4°C (40% RH)
AAT2.2°C
QNH1006 hPa
Density Alt1,063 ft
Elevation1,191 ft
Report Wrong Elevation
Raw Report
KAKR 250254Z AUTO 19012KT 10SM CLR 09/M04 A2972 RMK AO2 SLP066
T00941044 58015=

Extra information for KAKR:More info

Metar Taf Metar & Taf Last 4 Metars F.Rules Stats Wind Profile Meteogram Temp Stats Airport Information Weather charts Add Link Nearby VenuesMetar ALERT Operation Metar Decoded Social comments

AIRNAV info for KAKR